createdAt,value
2023-01-07T00:01:29.247Z,6.20
2023-01-07T00:04:32.213Z,6.30
2023-01-07T00:07:35.180Z,6.30
2023-01-07T00:10:38.422Z,6.40
2023-01-07T00:13:43.024Z,6.50
2023-01-07T00:16:46.059Z,6.60
2023-01-07T00:19:49.053Z,6.70
2023-01-07T00:22:52.251Z,6.70
2023-01-07T00:26:01.505Z,6.70
2023-01-07T00:29:07.011Z,6.80
2023-01-07T00:32:10.003Z,6.80
2023-01-07T00:35:23.018Z,6.80
2023-01-07T00:38:26.045Z,6.90
2023-01-07T00:41:29.453Z,7.00
2023-01-07T00:44:34.444Z,7.10
2023-01-07T00:47:37.443Z,7.10
2023-01-07T00:50:40.480Z,7.10
2023-01-07T00:53:43.931Z,7.00
2023-01-07T00:56:46.927Z,7.00
2023-01-07T00:59:51.383Z,7.00
2023-01-07T01:02:54.912Z,7.00
2023-01-07T01:06:02.841Z,7.00
2023-01-07T01:09:05.820Z,7.10
2023-01-07T01:12:08.890Z,7.10
2023-01-07T01:15:15.459Z,7.10
2023-01-07T01:18:18.427Z,7.20
2023-01-07T01:21:21.435Z,7.20
2023-01-07T01:24:24.395Z,7.20
2023-01-07T01:27:27.372Z,7.30
2023-01-07T01:30:31.749Z,7.30
2023-01-07T01:33:35.011Z,7.40
2023-01-07T01:36:38.727Z,7.40
2023-01-07T01:39:41.723Z,7.30
2023-01-07T01:42:44.730Z,7.30
2023-01-07T01:45:49.039Z,7.30
2023-01-07T01:48:56.290Z,7.40
2023-01-07T01:52:04.054Z,7.40
2023-01-07T01:55:09.373Z,7.40
2023-01-07T01:58:17.545Z,7.50
2023-01-07T02:01:22.048Z,7.50
2023-01-07T02:04:28.107Z,7.50
2023-01-07T02:07:31.107Z,7.50
2023-01-07T02:10:35.098Z,7.60
2023-01-07T02:13:56.540Z,7.60
2023-01-07T02:17:06.806Z,7.60
2023-01-07T02:20:38.720Z,7.60
2023-01-07T02:24:09.936Z,7.70
2023-01-07T02:27:44.259Z,7.80
2023-01-07T02:31:12.652Z,7.80
2023-01-07T02:34:23.569Z,7.90
2023-01-07T02:37:31.088Z,7.90
2023-01-07T02:40:40.109Z,8.00
2023-01-07T02:43:50.077Z,8.00
2023-01-07T02:46:58.951Z,8.10
2023-01-07T02:50:03.323Z,8.00
2023-01-07T02:53:08.560Z,8.00
2023-01-07T02:56:25.631Z,8.00
2023-01-07T02:59:51.271Z,8.00
2023-01-07T03:03:13.060Z,8.00
2023-01-07T03:06:33.886Z,8.10
2023-01-07T03:09:42.824Z,8.20
2023-01-07T03:12:49.932Z,8.20
2023-01-07T03:15:56.976Z,8.30
2023-01-07T03:19:02.673Z,8.30
2023-01-07T03:22:09.465Z,8.30
2023-01-07T03:25:14.167Z,8.40
2023-01-07T03:28:20.118Z,8.40
2023-01-07T03:31:23.944Z,8.40
2023-01-07T03:34:28.769Z,8.40
2023-01-07T03:37:35.040Z,8.40
2023-01-07T03:40:38.944Z,8.40
2023-01-07T03:43:40.965Z,8.50
2023-01-07T03:46:44.384Z,8.50
2023-01-07T03:49:47.466Z,8.60
2023-01-07T03:52:52.054Z,8.50
2023-01-07T03:55:55.027Z,8.50
2023-01-07T03:58:58.035Z,8.50
2023-01-07T04:02:01.158Z,8.50
2023-01-07T04:05:05.039Z,8.50
2023-01-07T04:08:09.365Z,8.60
2023-01-07T04:11:12.417Z,8.70
2023-01-07T04:14:15.399Z,8.70
2023-01-07T04:17:18.407Z,8.80
2023-01-07T04:20:21.423Z,8.80
2023-01-07T04:23:25.861Z,8.80
2023-01-07T04:26:28.850Z,8.90
2023-01-07T04:29:32.042Z,9.00
2023-01-07T04:32:35.140Z,9.00
2023-01-07T04:35:39.557Z,9.10
2023-01-07T04:38:43.887Z,9.20
2023-01-07T04:41:46.899Z,9.20
2023-01-07T04:44:49.883Z,9.30
2023-01-07T04:47:56.210Z,9.40
2023-01-07T04:50:59.225Z,9.40
2023-01-07T04:54:03.570Z,9.40
2023-01-07T04:57:06.546Z,9.40
2023-01-07T05:00:10.792Z,9.50
2023-01-07T05:03:13.817Z,9.40
2023-01-07T05:06:16.805Z,9.50
2023-01-07T05:09:21.473Z,9.50
2023-01-07T05:12:24.517Z,9.50
2023-01-07T05:15:27.507Z,9.50
2023-01-07T05:18:31.152Z,9.60
2023-01-07T05:21:34.156Z,9.60
2023-01-07T05:24:38.479Z,9.80
2023-01-07T05:27:41.449Z,9.90
2023-01-07T05:30:44.792Z,10.00
2023-01-07T05:33:47.940Z,10.10
2023-01-07T05:36:50.963Z,10.10
2023-01-07T05:39:55.285Z,10.20
2023-01-07T05:42:58.282Z,10.20
2023-01-07T05:46:01.468Z,10.30
2023-01-07T05:49:04.606Z,10.30
2023-01-07T05:52:07.589Z,10.30
2023-01-07T05:55:13.321Z,10.30
2023-01-07T05:58:16.317Z,10.40
2023-01-07T06:01:19.365Z,10.40
2023-01-07T06:04:22.480Z,10.40
2023-01-07T06:07:25.551Z,10.50
2023-01-07T06:10:29.903Z,10.50
2023-01-07T06:13:32.890Z,10.60
2023-01-07T06:16:35.938Z,10.60
2023-01-07T06:19:38.989Z,10.60
2023-01-07T06:22:42.850Z,10.60
2023-01-07T06:25:47.186Z,10.70
2023-01-07T06:28:51.955Z,10.70
2023-01-07T06:31:54.974Z,10.70
2023-01-07T06:34:58.061Z,10.80
2023-01-07T06:38:01.402Z,10.80
2023-01-07T06:41:06.185Z,10.80
2023-01-07T06:44:09.266Z,10.70
2023-01-07T06:47:12.241Z,10.80
2023-01-07T06:50:15.751Z,10.70
2023-01-07T06:53:18.772Z,10.70
2023-01-07T06:56:23.140Z,10.70
2023-01-07T06:59:26.204Z,10.70
2023-01-07T07:02:29.923Z,10.80
2023-01-07T07:05:33.318Z,10.70
2023-01-07T07:08:36.334Z,10.70
2023-01-07T07:11:40.690Z,10.80
2023-01-07T07:14:44.022Z,10.80
2023-01-07T07:17:47.153Z,10.90
2023-01-07T07:20:50.156Z,10.90
2023-01-07T07:23:53.142Z,10.90
2023-01-07T07:26:57.516Z,10.90
2023-01-07T07:30:00.480Z,10.80
2023-01-07T07:33:04.106Z,10.80
2023-01-07T07:36:07.840Z,10.80
2023-01-07T07:39:12.633Z,10.80
2023-01-07T07:42:16.939Z,10.80
2023-01-07T07:45:20.607Z,10.90
2023-01-07T07:48:23.577Z,10.90
2023-01-07T07:51:26.585Z,10.90
2023-01-07T07:54:29.603Z,10.90
2023-01-07T07:57:33.924Z,10.90
2023-01-07T08:00:36.928Z,11.00
2023-01-07T08:03:40.010Z,11.10
2023-01-07T08:06:43.099Z,11.10
2023-01-07T08:09:46.045Z,11.10
2023-01-07T08:12:50.701Z,11.20
2023-01-07T08:15:53.885Z,11.20
2023-01-07T08:18:56.911Z,11.20
2023-01-07T08:21:59.899Z,11.30
2023-01-07T08:25:03.056Z,11.20
2023-01-07T08:28:07.527Z,11.10
2023-01-07T08:31:11.077Z,11.20
2023-01-07T08:34:14.101Z,11.10
2023-01-07T08:37:17.658Z,11.20
2023-01-07T08:40:20.722Z,11.20
2023-01-07T08:43:25.092Z,11.20
2023-01-07T08:46:28.114Z,11.20
2023-01-07T08:49:31.119Z,11.20
2023-01-07T08:52:34.427Z,11.20
2023-01-07T08:55:37.440Z,11.30
2023-01-07T08:58:41.830Z,11.30
2023-01-07T09:01:44.996Z,11.30
2023-01-07T09:04:48.095Z,11.30
2023-01-07T09:07:53.221Z,11.20
2023-01-07T09:10:56.241Z,11.20
2023-01-07T09:14:00.622Z,11.10
2023-01-07T09:17:03.642Z,11.20
2023-01-07T09:20:08.363Z,11.20
2023-01-07T09:23:11.469Z,11.30
2023-01-07T09:26:14.560Z,11.40
2023-01-07T09:29:18.931Z,11.40
2023-01-07T09:32:22.195Z,11.50
2023-01-07T09:35:25.155Z,11.50
2023-01-07T09:38:28.140Z,11.60
2023-01-07T09:41:41.585Z,11.60
2023-01-07T09:45:01.754Z,11.60
2023-01-07T09:48:22.065Z,11.70
2023-01-07T09:51:30.887Z,11.80
2023-01-07T09:54:36.791Z,12.00
2023-01-07T09:57:39.968Z,12.20
2023-01-07T10:00:56.060Z,12.20
2023-01-07T10:04:14.527Z,12.10
2023-01-07T10:07:36.585Z,12.10
2023-01-07T10:10:46.800Z,12.10
2023-01-07T10:14:03.168Z,12.20
2023-01-07T10:17:19.530Z,12.10
2023-01-07T10:20:33.197Z,12.10
2023-01-07T10:23:40.378Z,12.10
2023-01-07T10:26:48.421Z,12.10
2023-01-07T10:29:55.076Z,12.10
2023-01-07T10:33:11.847Z,12.10
2023-01-07T10:36:22.034Z,12.10
2023-01-07T10:39:32.161Z,12.20
2023-01-07T10:42:40.823Z,12.20
2023-01-07T10:46:04.780Z,12.30
2023-01-07T10:49:32.275Z,12.40
2023-01-07T10:52:45.890Z,12.50
2023-01-07T10:55:55.763Z,12.50
2023-01-07T10:58:59.270Z,12.40
2023-01-07T11:02:02.582Z,12.40
2023-01-07T11:05:08.017Z,12.50
2023-01-07T11:08:16.859Z,12.40
2023-01-07T11:11:24.091Z,12.40
2023-01-07T11:14:30.297Z,12.40
2023-01-07T11:17:36.913Z,12.30
2023-01-07T11:20:49.897Z,12.30
2023-01-07T11:23:52.917Z,12.30
2023-01-07T11:27:01.232Z,12.30
2023-01-07T11:30:07.293Z,12.30
2023-01-07T11:33:23.050Z,12.30
2023-01-07T11:36:47.357Z,12.40
2023-01-07T11:39:59.444Z,12.40
2023-01-07T11:43:04.108Z,12.50
2023-01-07T11:46:20.225Z,12.50
2023-01-07T11:49:30.801Z,12.50
2023-01-07T11:52:35.386Z,12.50
2023-01-07T11:55:38.632Z,12.60
2023-01-07T11:58:44.602Z,12.60
2023-01-07T12:01:49.501Z,12.60
2023-01-07T12:04:52.564Z,12.60
2023-01-07T12:07:58.768Z,12.60
2023-01-07T12:11:07.069Z,12.50
2023-01-07T12:14:19.327Z,12.50
2023-01-07T12:17:24.795Z,12.60
2023-01-07T12:20:41.990Z,12.60
2023-01-07T12:23:59.278Z,12.50
2023-01-07T12:27:11.536Z,12.50
2023-01-07T12:30:30.560Z,12.50
2023-01-07T12:33:51.527Z,12.40
2023-01-07T12:37:00.677Z,12.50
2023-01-07T12:40:23.098Z,12.50
2023-01-07T12:43:31.413Z,12.50
2023-01-07T12:46:39.828Z,12.50
2023-01-07T12:49:49.372Z,12.40
2023-01-07T12:52:57.328Z,12.30
2023-01-07T12:56:06.056Z,12.30
2023-01-07T12:59:46.478Z,12.20
2023-01-07T13:02:54.417Z,12.00
2023-01-07T13:06:02.644Z,12.00
2023-01-07T13:09:17.256Z,12.00
2023-01-07T13:12:45.998Z,12.00
2023-01-07T13:15:50.093Z,12.00
2023-01-07T13:18:53.105Z,11.90
2023-01-07T13:21:56.492Z,11.90
2023-01-07T13:25:12.451Z,11.90
2023-01-07T13:28:38.624Z,11.80
2023-01-07T13:32:00.246Z,11.90
2023-01-07T13:35:29.200Z,11.90
2023-01-07T13:38:48.015Z,11.90
2023-01-07T13:42:07.101Z,11.80
2023-01-07T13:45:15.429Z,11.80
2023-01-07T13:48:22.210Z,11.80
2023-01-07T13:51:28.978Z,11.70
2023-01-07T13:55:00.512Z,11.80
2023-01-07T13:58:03.905Z,11.70
2023-01-07T14:01:09.652Z,11.70
2023-01-07T14:04:35.428Z,11.60
2023-01-07T14:07:46.926Z,11.70
2023-01-07T14:10:54.223Z,11.60
2023-01-07T14:14:06.957Z,11.40
2023-01-07T14:17:21.436Z,11.40
2023-01-07T14:20:32.726Z,11.50
2023-01-07T14:23:45.003Z,11.50
2023-01-07T14:26:57.126Z,11.50
2023-01-07T14:30:16.059Z,11.40
2023-01-07T14:33:23.719Z,11.40
2023-01-07T14:37:11.540Z,11.50
2023-01-07T14:41:00.506Z,11.40
2023-01-07T14:44:31.040Z,11.30
2023-01-07T14:47:53.465Z,11.30
2023-01-07T14:51:12.218Z,11.30
2023-01-07T14:54:36.802Z,11.30
2023-01-07T14:57:47.918Z,11.30
2023-01-07T15:01:21.961Z,11.30
2023-01-07T15:05:00.188Z,11.30
2023-01-07T15:08:26.790Z,11.30
2023-01-07T15:11:48.754Z,11.20
2023-01-07T15:15:23.810Z,11.20
2023-01-07T15:18:26.952Z,11.20
2023-01-07T15:21:40.197Z,11.20
2023-01-07T15:24:51.643Z,11.20
2023-01-07T15:28:01.910Z,11.20
2023-01-07T15:31:13.536Z,11.20
2023-01-07T15:34:17.572Z,11.30
2023-01-07T15:37:21.355Z,11.20
2023-01-07T15:40:26.706Z,11.20
2023-01-07T15:43:31.895Z,11.10
2023-01-07T15:46:40.122Z,11.10
2023-01-07T15:49:43.202Z,11.10
2023-01-07T15:52:49.975Z,11.00
2023-01-07T15:55:58.558Z,11.00
2023-01-07T15:59:01.771Z,10.90
2023-01-07T16:02:16.358Z,11.00
2023-01-07T16:05:20.176Z,11.00
2023-01-07T16:08:29.049Z,11.10
2023-01-07T16:11:33.416Z,11.00
2023-01-07T16:14:37.242Z,11.00
2023-01-07T16:17:50.952Z,11.10
2023-01-07T16:20:57.682Z,11.00
2023-01-07T16:24:00.717Z,11.00
2023-01-07T16:27:06.359Z,11.00
2023-01-07T16:30:15.578Z,11.00
2023-01-07T16:33:21.876Z,11.00
2023-01-07T16:36:28.416Z,11.10
2023-01-07T16:39:33.546Z,11.00
2023-01-07T16:42:38.446Z,11.00
2023-01-07T16:45:42.957Z,11.00
2023-01-07T16:48:46.691Z,11.10
2023-01-07T16:51:51.417Z,11.00
2023-01-07T16:54:54.444Z,11.00
2023-01-07T16:57:58.774Z,10.90
2023-01-07T17:01:03.282Z,10.80
2023-01-07T17:04:10.461Z,10.80
2023-01-07T17:07:21.668Z,10.80
2023-01-07T17:10:27.985Z,10.80
2023-01-07T17:13:35.020Z,10.70
2023-01-07T17:16:38.364Z,10.60
2023-01-07T17:19:42.963Z,10.60
2023-01-07T17:22:47.105Z,10.60
2023-01-07T17:25:51.425Z,10.50
2023-01-07T17:28:59.668Z,10.50
2023-01-07T17:32:03.777Z,10.50
2023-01-07T17:35:07.442Z,10.40
2023-01-07T17:38:13.194Z,10.40
2023-01-07T17:41:32.426Z,10.40
2023-01-07T17:44:36.793Z,10.40
2023-01-07T17:47:40.280Z,10.40
2023-01-07T17:50:44.018Z,10.30
2023-01-07T17:53:49.254Z,10.30
2023-01-07T17:56:53.639Z,10.20
2023-01-07T17:59:58.130Z,10.20
2023-01-07T18:03:01.173Z,10.20
2023-01-07T18:06:17.361Z,10.20
2023-01-07T18:09:20.416Z,10.20
2023-01-07T18:12:34.440Z,10.20
2023-01-07T18:15:38.788Z,10.10
2023-01-07T18:18:41.796Z,10.10
2023-01-07T18:21:44.812Z,10.00
2023-01-07T18:24:47.780Z,10.00
2023-01-07T18:27:53.208Z,10.10
2023-01-07T18:30:57.549Z,10.10
2023-01-07T18:34:00.537Z,10.00
2023-01-07T18:37:04.122Z,10.00
2023-01-07T18:40:08.642Z,10.00
2023-01-07T18:43:14.116Z,10.00
2023-01-07T18:46:18.512Z,10.00
2023-01-07T18:49:22.860Z,10.00
2023-01-07T18:52:26.153Z,10.00
2023-01-07T18:55:29.435Z,9.90
2023-01-07T18:58:32.389Z,9.90
2023-01-07T19:01:36.844Z,9.90
2023-01-07T19:04:41.502Z,9.90
2023-01-07T19:07:44.587Z,9.80
2023-01-07T19:10:49.583Z,9.80
2023-01-07T19:13:52.591Z,9.80
2023-01-07T19:16:57.075Z,9.80
2023-01-07T19:20:00.115Z,9.70
2023-01-07T19:23:03.335Z,9.70
2023-01-07T19:26:08.446Z,9.70
2023-01-07T19:29:13.973Z,9.70
2023-01-07T19:32:18.672Z,9.60
2023-01-07T19:35:21.918Z,9.60
2023-01-07T19:38:25.148Z,9.60
2023-01-07T19:41:28.297Z,9.50
2023-01-07T19:44:31.342Z,9.50
2023-01-07T19:47:36.206Z,9.60
2023-01-07T19:50:39.242Z,9.50
2023-01-07T19:53:42.234Z,9.60
2023-01-07T19:56:45.684Z,9.50
2023-01-07T19:59:48.694Z,9.50
2023-01-07T20:02:53.103Z,9.40
2023-01-07T20:05:56.115Z,9.40
2023-01-07T20:09:00.254Z,9.30
2023-01-07T20:12:03.255Z,9.30
2023-01-07T20:15:07.757Z,9.30
2023-01-07T20:18:15.025Z,9.30
2023-01-07T20:21:19.668Z,9.20
2023-01-07T20:24:22.654Z,9.20
2023-01-07T20:27:25.651Z,9.20
2023-01-07T20:30:28.596Z,9.30
2023-01-07T20:33:32.903Z,9.30
2023-01-07T20:36:35.885Z,9.20
2023-01-07T20:39:38.944Z,9.30
2023-01-07T20:42:42.013Z,9.30
2023-01-07T20:45:45.150Z,9.30
2023-01-07T20:48:50.007Z,9.40
2023-01-07T20:51:53.001Z,9.40
2023-01-07T20:54:55.990Z,9.40
2023-01-07T20:57:58.956Z,9.40
2023-01-07T21:01:04.148Z,9.50
2023-01-07T21:04:08.553Z,9.50
2023-01-07T21:07:11.539Z,9.50
2023-01-07T21:10:15.420Z,9.60
2023-01-07T21:13:18.474Z,9.50
2023-01-07T21:16:21.461Z,9.50
2023-01-07T21:19:25.803Z,9.50
2023-01-07T21:22:30.051Z,9.50
2023-01-07T21:25:33.336Z,9.60
2023-01-07T21:28:36.953Z,9.60
2023-01-07T21:31:39.960Z,9.50
2023-01-07T21:34:44.359Z,9.50
2023-01-07T21:37:47.311Z,9.50
2023-01-07T21:40:50.331Z,9.50
2023-01-07T21:43:53.390Z,9.50
2023-01-07T21:46:56.367Z,9.40
2023-01-07T21:50:00.767Z,9.40
2023-01-07T21:53:03.751Z,9.50
2023-01-07T21:56:08.664Z,9.50
2023-01-07T21:59:11.635Z,9.40
2023-01-07T22:02:17.684Z,9.40
2023-01-07T22:05:21.998Z,9.40
2023-01-07T22:08:25.085Z,9.40
2023-01-07T22:11:28.676Z,9.50
2023-01-07T22:14:31.820Z,9.40
2023-01-07T22:17:34.800Z,9.50
2023-01-07T22:20:39.121Z,9.50
2023-01-07T22:23:44.850Z,9.50
2023-01-07T22:26:48.082Z,9.40
2023-01-07T22:29:51.034Z,9.40
2023-01-07T22:32:53.999Z,9.40
2023-01-07T22:35:59.920Z,9.40
2023-01-07T22:39:04.697Z,9.40
2023-01-07T22:42:11.453Z,9.50
2023-01-07T22:45:18.758Z,9.40
2023-01-07T22:48:27.048Z,9.40
2023-01-07T22:51:36.515Z,9.40
2023-01-07T22:54:41.317Z,9.40
2023-01-07T22:57:44.387Z,9.40
2023-01-07T23:01:07.725Z,9.50
2023-01-07T23:04:10.800Z,9.50
2023-01-07T23:07:15.206Z,9.60
2023-01-07T23:10:18.195Z,9.60
2023-01-07T23:13:21.179Z,9.60
2023-01-07T23:16:24.153Z,9.50
2023-01-07T23:19:27.179Z,9.50
2023-01-07T23:22:31.489Z,9.60
2023-01-07T23:25:35.541Z,9.60
2023-01-07T23:28:38.564Z,9.60
2023-01-07T23:31:41.807Z,9.60
2023-01-07T23:34:44.870Z,9.50
2023-01-07T23:37:49.192Z,9.50
2023-01-07T23:41:00.956Z,9.60
2023-01-07T23:44:03.957Z,9.60
2023-01-07T23:47:07.042Z,9.60
2023-01-07T23:50:10.351Z,9.60
2023-01-07T23:53:14.655Z,9.70
2023-01-07T23:56:19.347Z,9.70
2023-01-07T23:59:22.481Z,9.80
